createdAt,value
2019-05-15T00:00:52.267Z,0.0000
2019-05-15T00:01:55.308Z,0.0000
2019-05-15T00:02:58.926Z,0.0000
2019-05-15T00:04:02.267Z,0.0000
2019-05-15T00:05:05.299Z,0.0000
2019-05-15T00:06:08.645Z,0.0000
2019-05-15T00:07:11.301Z,0.0000
2019-05-15T00:08:14.343Z,0.0000
2019-05-15T00:09:19.104Z,0.0000
2019-05-15T00:10:22.287Z,0.0000
2019-05-15T00:11:25.321Z,0.0000
2019-05-15T00:12:28.491Z,0.0000
2019-05-15T00:13:31.320Z,0.0000
2019-05-15T00:14:34.295Z,0.0000
2019-05-15T00:15:39.784Z,0.0000
2019-05-15T00:16:42.315Z,0.0000
2019-05-15T00:17:45.280Z,0.0000
2019-05-15T00:18:48.406Z,0.0000
2019-05-15T00:19:51.284Z,0.0000
2019-05-15T00:20:54.297Z,0.0000
2019-05-15T00:21:58.585Z,0.0000
2019-05-15T00:23:01.277Z,0.0000
2019-05-15T00:24:04.349Z,0.0000
2019-05-15T00:25:09.316Z,0.0000
2019-05-15T00:26:12.298Z,0.0000
2019-05-15T00:27:14.293Z,0.0000
2019-05-15T00:28:18.570Z,0.0000
2019-05-15T00:29:21.312Z,0.0000
2019-05-15T00:30:24.315Z,0.0000
2019-05-15T00:31:29.161Z,0.0000
2019-05-15T00:32:32.310Z,0.0000
2019-05-15T00:33:35.306Z,0.0000
2019-05-15T00:34:38.271Z,0.0000
2019-05-15T00:35:41.322Z,0.0000
2019-05-15T00:36:44.269Z,0.0000
2019-05-15T00:37:49.263Z,0.0000
2019-05-15T00:38:52.316Z,0.0000
2019-05-15T00:39:55.317Z,0.0000
2019-05-15T00:40:58.610Z,0.0000
2019-05-15T00:42:01.320Z,0.0000
2019-05-15T00:43:04.292Z,0.0000
2019-05-15T00:44:09.226Z,0.0000
2019-05-15T00:45:12.266Z,0.0000
2019-05-15T00:46:15.273Z,0.0000
2019-05-15T00:47:18.325Z,0.0000
2019-05-15T00:48:21.302Z,0.0000
2019-05-15T00:49:24.335Z,0.0000
2019-05-15T00:50:28.744Z,0.0000
2019-05-15T00:51:30.282Z,0.0000
2019-05-15T00:52:33.292Z,0.0000
2019-05-15T00:53:38.752Z,0.0000
2019-05-15T00:54:42.356Z,0.0000
2019-05-15T00:55:45.277Z,0.0000
2019-05-15T00:56:48.524Z,0.0000
2019-05-15T00:57:51.309Z,0.0000
2019-05-15T00:58:54.282Z,0.0000
2019-05-15T00:59:58.954Z,0.0000
2019-05-15T01:01:02.308Z,0.0000
2019-05-15T01:02:05.283Z,0.0000
2019-05-15T01:03:08.749Z,0.0000
2019-05-15T01:04:12.347Z,0.0000
2019-05-15T01:05:15.282Z,0.0000
2019-05-15T01:06:19.033Z,0.0000
2019-05-15T01:07:21.301Z,0.0000
2019-05-15T01:08:24.272Z,0.0000
2019-05-15T01:09:29.226Z,0.0000
2019-05-15T01:10:32.309Z,0.0000
2019-05-15T01:11:35.288Z,0.0000
2019-05-15T01:12:38.304Z,0.0000
2019-05-15T01:13:41.286Z,0.0000
2019-05-15T01:14:44.346Z,0.0000
2019-05-15T01:15:48.966Z,0.0000
2019-05-15T01:16:52.296Z,0.0000
2019-05-15T01:17:55.307Z,0.0000
2019-05-15T01:18:58.563Z,0.0000
2019-05-15T01:20:01.336Z,0.0000
2019-05-15T01:21:04.268Z,0.0000
2019-05-15T01:22:08.709Z,0.0000
2019-05-15T01:23:11.280Z,0.0000
2019-05-15T01:24:14.306Z,0.0000
2019-05-15T01:25:18.609Z,0.0000
2019-05-15T01:26:23.295Z,0.0000
2019-05-15T01:27:28.997Z,0.0000
2019-05-15T01:28:32.302Z,0.0000
2019-05-15T01:29:41.964Z,0.0000
2019-05-15T01:30:43.301Z,0.0000
2019-05-15T01:31:48.508Z,0.0000
2019-05-15T01:32:52.306Z,0.0000
2019-05-15T01:33:55.260Z,0.0000
2019-05-15T01:34:58.348Z,0.0000
2019-05-15T01:36:01.300Z,0.0000
2019-05-15T01:37:04.287Z,0.0000
2019-05-15T01:38:08.107Z,0.0000
2019-05-15T01:39:11.313Z,0.0000
2019-05-15T01:40:14.300Z,0.0000
2019-05-15T01:41:19.336Z,0.0000
2019-05-15T01:42:22.294Z,0.0000
2019-05-15T01:43:25.297Z,0.0000
2019-05-15T01:44:28.704Z,0.0000
2019-05-15T01:45:31.344Z,0.0000
2019-05-15T01:46:34.271Z,0.0000
2019-05-15T01:47:38.925Z,0.0000
2019-05-15T01:48:41.275Z,0.0000
2019-05-15T01:49:44.310Z,0.0000
2019-05-15T01:50:49.221Z,0.0000
2019-05-15T01:51:52.309Z,0.0000
2019-05-15T01:52:55.295Z,0.0000
2019-05-15T01:53:58.511Z,0.0000
2019-05-15T01:55:01.316Z,0.0000
2019-05-15T01:56:04.308Z,0.0000
2019-05-15T01:57:09.370Z,0.0000
2019-05-15T01:58:12.296Z,0.0000
2019-05-15T01:59:15.266Z,0.0000
2019-05-15T02:00:18.839Z,0.0000
2019-05-15T02:01:22.270Z,0.0000
2019-05-15T02:02:25.308Z,0.0000
2019-05-15T02:03:28.970Z,0.0000
2019-05-15T02:04:32.310Z,0.0000
2019-05-15T02:05:35.284Z,0.0000
2019-05-15T02:06:39.075Z,0.0000
2019-05-15T02:07:42.291Z,0.0000
2019-05-15T02:08:45.281Z,0.0000
2019-05-15T02:09:49.273Z,0.0000
2019-05-15T02:10:51.294Z,0.0000
2019-05-15T02:11:54.305Z,0.0000
2019-05-15T02:12:58.746Z,0.0000
2019-05-15T02:14:01.321Z,0.0000
2019-05-15T02:15:04.278Z,0.0000
2019-05-15T02:16:08.400Z,0.0000
2019-05-15T02:17:11.270Z,0.0000
2019-05-15T02:18:14.300Z,0.0000
2019-05-15T02:19:19.219Z,0.0000
2019-05-15T02:20:21.285Z,0.0000
2019-05-15T02:21:24.282Z,0.0000
2019-05-15T02:22:28.332Z,0.0000
2019-05-15T02:23:31.308Z,0.0000
2019-05-15T02:24:34.291Z,0.0000
2019-05-15T02:25:38.761Z,0.0000
2019-05-15T02:26:42.303Z,0.0000
2019-05-15T02:27:45.310Z,0.0000
2019-05-15T02:28:48.829Z,0.0000
2019-05-15T02:29:52.283Z,0.0000
2019-05-15T02:30:58.467Z,0.0000
2019-05-15T02:32:01.292Z,0.0000
2019-05-15T02:33:04.316Z,0.0000
2019-05-15T02:34:10.097Z,0.0000
2019-05-15T02:35:13.285Z,0.0000
2019-05-15T02:36:20.182Z,0.0000
2019-05-15T02:37:23.317Z,0.0000
2019-05-15T02:38:29.272Z,0.0000
2019-05-15T02:39:32.310Z,0.0000
2019-05-15T02:40:35.311Z,0.0000
2019-05-15T02:41:39.752Z,0.0000
2019-05-15T02:42:43.328Z,0.0000
2019-05-15T02:43:49.713Z,0.0000
2019-05-15T02:44:52.311Z,0.0000
2019-05-15T02:45:55.296Z,0.0000
2019-05-15T02:46:58.938Z,0.0000
2019-05-15T02:48:02.290Z,0.0000
2019-05-15T02:49:08.522Z,0.0000
2019-05-15T02:50:12.290Z,0.0000
2019-05-15T02:51:15.347Z,0.0000
2019-05-15T02:52:19.855Z,0.0000
2019-05-15T02:53:23.280Z,0.0000
2019-05-15T02:54:25.294Z,0.0000
2019-05-15T02:55:29.635Z,0.0000
2019-05-15T02:56:33.375Z,0.0000
2019-05-15T02:57:39.408Z,0.0000
2019-05-15T02:58:42.332Z,0.0000
2019-05-15T02:59:45.290Z,0.0000
2019-05-15T03:00:53.141Z,0.0000
2019-05-15T03:01:59.163Z,0.0000
2019-05-15T03:03:02.314Z,0.0000
2019-05-15T03:04:05.276Z,0.0000
2019-05-15T03:05:09.330Z,0.0000
2019-05-15T03:06:11.486Z,0.0000
2019-05-15T03:07:14.317Z,0.0000
2019-05-15T03:08:19.595Z,1.0000
2019-05-15T03:09:23.298Z,1.0000
2019-05-15T03:10:29.397Z,1.0000
2019-05-15T03:11:32.298Z,1.0000
2019-05-15T03:12:35.301Z,1.0000
2019-05-15T03:13:39.217Z,1.0000
2019-05-15T03:14:42.340Z,2.0000
2019-05-15T03:15:48.631Z,1.0000
2019-05-15T03:16:52.294Z,2.0000
2019-05-15T03:17:55.352Z,3.0000
2019-05-15T03:18:59.737Z,3.0000
2019-05-15T03:20:03.310Z,4.0000
2019-05-15T03:21:09.278Z,4.0000
2019-05-15T03:22:13.328Z,5.0000
2019-05-15T03:23:19.527Z,5.0000
2019-05-15T03:24:22.319Z,6.0000
2019-05-15T03:25:25.273Z,7.0000
2019-05-15T03:26:29.826Z,8.0000
2019-05-15T03:27:34.928Z,10.0000
2019-05-15T03:28:39.364Z,12.0000
2019-05-15T03:29:42.298Z,15.0000
2019-05-15T03:31:15.512Z,17.0000
2019-05-15T03:32:13.225Z,19.0000
2019-05-15T03:33:08.820Z,24.0000
2019-05-15T03:34:20.306Z,26.0000
2019-05-15T03:35:21.972Z,30.0000
2019-05-15T03:36:31.104Z,34.0000
2019-05-15T03:37:34.378Z,37.0000
2019-05-15T03:38:39.360Z,43.0000
2019-05-15T03:39:46.534Z,47.0000
2019-05-15T03:40:50.299Z,54.0000
2019-05-15T03:41:53.308Z,63.0000
2019-05-15T03:42:59.270Z,78.0000
2019-05-15T03:44:02.350Z,86.0000
2019-05-15T03:45:05.354Z,87.0000
2019-05-15T03:46:09.144Z,103.0000
2019-05-15T03:47:12.306Z,125.0000
2019-05-15T03:48:15.305Z,163.0000
2019-05-15T03:49:19.924Z,183.0000
2019-05-15T03:50:23.339Z,202.0000
2019-05-15T03:51:28.922Z,233.0000
2019-05-15T03:52:32.300Z,266.0000
2019-05-15T03:53:35.336Z,295.0000
2019-05-15T03:54:39.218Z,313.0000
2019-05-15T03:55:42.282Z,345.0000
2019-05-15T03:56:45.291Z,384.0000
2019-05-15T03:57:49.884Z,395.0000
2019-05-15T03:58:53.331Z,424.0000
2019-05-15T03:59:56.270Z,467.0000
2019-05-15T04:01:00.167Z,490.0000
2019-05-15T04:02:03.332Z,510.0000
2019-05-15T04:03:06.268Z,535.0000
2019-05-15T04:04:09.701Z,568.0000
2019-05-15T04:05:12.463Z,606.0000
2019-05-15T04:06:14.299Z,641.0000
2019-05-15T04:07:18.826Z,678.0000
2019-05-15T04:08:22.309Z,709.0000
2019-05-15T04:09:25.333Z,744.0000
2019-05-15T04:10:28.835Z,779.0000
2019-05-15T04:11:32.290Z,807.0000
2019-05-15T04:12:35.263Z,847.0000
2019-05-15T04:13:39.680Z,908.0000
2019-05-15T04:14:43.277Z,903.0000
2019-05-15T04:15:49.816Z,911.0000
2019-05-15T04:16:53.302Z,942.0000
2019-05-15T04:17:59.993Z,985.0000
2019-05-15T04:19:03.342Z,1023.0000
2019-05-15T04:20:09.594Z,1046.0000
2019-05-15T04:21:12.317Z,1072.0000
2019-05-15T04:22:15.313Z,1103.0000
2019-05-15T04:23:19.065Z,1144.0000
2019-05-15T04:24:22.332Z,1184.0000
2019-05-15T04:25:25.301Z,1198.0000
2019-05-15T04:26:28.870Z,1215.0000
2019-05-15T04:27:32.326Z,1233.0000
2019-05-15T04:28:35.294Z,1260.0000
2019-05-15T04:29:39.744Z,1284.0000
2019-05-15T04:30:43.317Z,1306.0000
2019-05-15T04:31:58.908Z,1320.0000
2019-05-15T04:32:54.339Z,1331.0000
2019-05-15T04:33:59.318Z,1358.0000
2019-05-15T04:35:02.342Z,1382.0000
2019-05-15T04:36:05.270Z,1412.0000
2019-05-15T04:37:09.400Z,1449.0000
2019-05-15T04:38:13.361Z,1487.0000
2019-05-15T04:39:19.053Z,1539.0000
2019-05-15T04:40:22.344Z,1634.0000
2019-05-15T04:41:25.292Z,1716.0000
2019-05-15T04:42:29.946Z,1802.0000
2019-05-15T04:43:41.267Z,1882.0000
2019-05-15T04:44:41.328Z,1931.0000
2019-05-15T04:45:44.316Z,1989.0000
2019-05-15T04:46:49.794Z,2033.0000
2019-05-15T04:47:52.296Z,2064.0000
2019-05-15T04:48:55.326Z,2146.0000
2019-05-15T04:49:59.028Z,2150.0000
2019-05-15T04:51:02.311Z,2177.0000
2019-05-15T04:52:05.271Z,2231.0000
2019-05-15T04:53:10.670Z,2423.0000
2019-05-15T04:54:14.293Z,2595.0000
2019-05-15T04:55:19.669Z,2533.0000
2019-05-15T04:56:23.315Z,2516.0000
2019-05-15T04:57:30.384Z,2578.0000
2019-05-15T04:58:34.348Z,3443.0000
2019-05-15T04:59:39.086Z,3720.0000
2019-05-15T05:00:42.346Z,3408.0000
2019-05-15T05:01:45.304Z,3559.0000
2019-05-15T05:02:49.643Z,3421.0000
2019-05-15T05:03:54.335Z,3128.0000
2019-05-15T05:04:58.794Z,3714.0000
2019-05-15T05:06:02.356Z,3052.0000
2019-05-15T05:07:05.279Z,3017.0000
2019-05-15T05:08:09.262Z,2585.0000
2019-05-15T05:09:12.269Z,2930.0000
2019-05-15T05:10:14.378Z,3750.0000
2019-05-15T05:11:19.793Z,4541.0000
2019-05-15T05:12:25.329Z,4326.0000
2019-05-15T05:13:28.837Z,3766.0000
2019-05-15T05:14:32.318Z,5393.0000
2019-05-15T05:15:35.301Z,6451.0000
2019-05-15T05:16:39.284Z,6158.0000
2019-05-15T05:17:43.310Z,5965.0000
2019-05-15T05:18:48.573Z,6825.0000
2019-05-15T05:19:52.365Z,6360.0000
2019-05-15T05:20:57.610Z,6821.0000
2019-05-15T05:22:01.326Z,6734.0000
2019-05-15T05:23:04.315Z,6646.0000
2019-05-15T05:24:08.053Z,6807.0000
2019-05-15T05:25:11.315Z,6133.0000
2019-05-15T05:26:14.274Z,6426.0000
2019-05-15T05:27:18.283Z,6552.0000
2019-05-15T05:28:21.305Z,7515.0000
2019-05-15T05:29:24.267Z,7555.0000
2019-05-15T05:30:29.269Z,7572.0000
2019-05-15T05:31:32.306Z,8969.0000
2019-05-15T05:32:35.504Z,8065.0000
2019-05-15T05:33:39.318Z,6454.0000
2019-05-15T05:34:42.283Z,7326.0000
2019-05-15T05:35:45.369Z,8990.0000
2019-05-15T05:36:48.308Z,8893.0000
2019-05-15T05:37:51.320Z,8513.0000
2019-05-15T05:38:54.308Z,8740.0000
2019-05-15T05:39:57.737Z,9920.0000
2019-05-15T05:41:01.310Z,10580.0000
2019-05-15T05:42:04.302Z,10760.0000
2019-05-15T05:43:09.452Z,9099.0000
2019-05-15T05:44:12.274Z,10088.0000
2019-05-15T05:45:15.319Z,9765.0000
2019-05-15T05:46:18.591Z,9195.0000
2019-05-15T05:47:21.318Z,8784.0000
2019-05-15T05:48:24.319Z,9278.0000
2019-05-15T05:49:28.858Z,9924.0000
2019-05-15T05:50:31.312Z,10156.0000
2019-05-15T05:51:34.335Z,9594.0000
2019-05-15T05:52:38.959Z,8272.0000
2019-05-15T05:53:42.316Z,7470.0000
2019-05-15T05:54:45.332Z,9451.0000
2019-05-15T05:55:49.201Z,11191.0000
2019-05-15T05:56:54.340Z,9104.0000
2019-05-15T05:57:58.418Z,7857.0000
2019-05-15T05:59:01.294Z,7400.0000
2019-05-15T06:00:04.320Z,4943.0000
2019-05-15T06:01:09.406Z,4679.0000
2019-05-15T06:02:12.301Z,5844.0000
2019-05-15T06:03:15.346Z,5236.0000
2019-05-15T06:04:18.726Z,4944.0000
2019-05-15T06:05:22.321Z,4601.0000
2019-05-15T06:06:25.346Z,4596.0000
2019-05-15T06:07:28.306Z,4516.0000
2019-05-15T06:08:31.316Z,4480.0000
2019-05-15T06:09:34.310Z,4369.0000
2019-05-15T06:10:38.573Z,4293.0000
2019-05-15T06:11:42.339Z,4565.0000
2019-05-15T06:12:45.283Z,5387.0000
2019-05-15T06:13:52.264Z,6390.0000
2019-05-15T06:14:55.309Z,6835.0000
2019-05-15T06:15:59.094Z,5909.0000
2019-05-15T06:17:02.348Z,4823.0000
2019-05-15T06:18:05.312Z,4421.0000
2019-05-15T06:19:08.432Z,4374.0000
2019-05-15T06:20:11.274Z,4917.0000
2019-05-15T06:21:14.334Z,4436.0000
2019-05-15T06:22:18.804Z,4632.0000
2019-05-15T06:23:25.114Z,4676.0000
2019-05-15T06:24:30.525Z,4535.0000
2019-05-15T06:25:34.322Z,4796.0000
2019-05-15T06:26:38.598Z,5422.0000
2019-05-15T06:27:41.317Z,5359.0000
2019-05-15T06:28:44.291Z,7673.0000
2019-05-15T06:29:48.487Z,9460.0000
2019-05-15T06:30:51.315Z,8421.0000
2019-05-15T06:31:54.369Z,7407.0000
2019-05-15T06:33:05.694Z,5655.0000
2019-05-15T06:34:05.326Z,6997.0000
2019-05-15T06:35:09.358Z,8133.0000
2019-05-15T06:36:12.286Z,9448.0000
2019-05-15T06:37:15.355Z,10282.0000
2019-05-15T06:38:19.452Z,11352.0000
2019-05-15T06:39:23.366Z,16138.0000
2019-05-15T06:40:28.752Z,14033.0000
2019-05-15T06:41:34.003Z,12423.0000
2019-05-15T06:42:39.457Z,17520.0000
2019-05-15T06:43:42.288Z,13105.0000
2019-05-15T06:44:48.351Z,10661.0000
2019-05-15T06:45:51.297Z,10323.0000
2019-05-15T06:46:54.340Z,9655.0000
2019-05-15T06:47:58.221Z,13301.0000
2019-05-15T06:49:03.329Z,13196.0000
2019-05-15T06:50:08.418Z,10131.0000
2019-05-15T06:51:11.337Z,7732.0000
2019-05-15T06:52:14.344Z,9868.0000
2019-05-15T06:53:19.356Z,13113.0000
2019-05-15T06:54:22.305Z,17680.0000
2019-05-15T06:55:25.342Z,14272.0000
2019-05-15T06:56:28.187Z,15529.0000
2019-05-15T06:57:31.342Z,24952.0000
2019-05-15T06:58:34.345Z,19128.0000
2019-05-15T06:59:38.927Z,16880.0000
2019-05-15T07:00:42.298Z,18488.0000
2019-05-15T07:01:47.953Z,17224.0000
2019-05-15T07:02:51.318Z,20232.0000
2019-05-15T07:03:54.304Z,19120.0000
2019-05-15T07:04:58.414Z,17608.0000
2019-05-15T07:06:01.301Z,16032.0000
2019-05-15T07:07:04.318Z,19768.0000
2019-05-15T07:08:09.098Z,29952.0000
2019-05-15T07:09:12.336Z,17608.0000
2019-05-15T07:10:15.334Z,9545.0000
2019-05-15T07:11:19.062Z,24328.0000
2019-05-15T07:12:21.382Z,16952.0000
2019-05-15T07:13:24.306Z,21744.0000
2019-05-15T07:14:28.785Z,13673.0000
2019-05-15T07:15:32.322Z,9260.0000
2019-05-15T07:16:35.290Z,8713.0000
2019-05-15T07:17:39.317Z,11791.0000
2019-05-15T07:18:43.312Z,15629.0000
2019-05-15T07:19:48.443Z,14916.0000
2019-05-15T07:20:51.303Z,9213.0000
2019-05-15T07:21:54.367Z,9571.0000
2019-05-15T07:22:58.646Z,14513.0000
2019-05-15T07:24:02.308Z,20048.0000
2019-05-15T07:25:05.307Z,17305.0000
2019-05-15T07:26:09.529Z,17936.0000
2019-05-15T07:27:13.298Z,19664.0000
2019-05-15T07:28:18.122Z,16596.0000
2019-05-15T07:29:21.282Z,16289.0000
2019-05-15T07:30:24.350Z,15568.0000
2019-05-15T07:31:28.891Z,13209.0000
2019-05-15T07:32:32.287Z,11021.0000
2019-05-15T07:33:40.410Z,12239.0000
2019-05-15T07:34:43.304Z,13413.0000
2019-05-15T07:35:45.326Z,8477.0000
2019-05-15T07:36:49.260Z,6612.0000
2019-05-15T07:37:52.338Z,8596.0000
2019-05-15T07:38:57.799Z,9823.0000
2019-05-15T07:40:01.304Z,9258.0000
2019-05-15T07:41:04.625Z,7375.0000
2019-05-15T07:42:08.693Z,7075.0000
2019-05-15T07:43:12.328Z,6277.0000
2019-05-15T07:44:15.379Z,6044.0000
2019-05-15T07:45:19.720Z,6043.0000
2019-05-15T07:46:23.312Z,6058.0000
2019-05-15T07:47:28.800Z,6026.0000
2019-05-15T07:48:32.316Z,7712.0000
2019-05-15T07:49:35.393Z,7554.0000
2019-05-15T07:50:38.899Z,14221.0000
2019-05-15T07:51:42.312Z,14559.0000
2019-05-15T07:52:45.290Z,9531.0000
2019-05-15T07:53:49.022Z,7246.0000
2019-05-15T07:54:51.333Z,6410.0000
2019-05-15T07:55:54.333Z,6444.0000
2019-05-15T07:56:58.221Z,6785.0000
2019-05-15T07:58:01.317Z,7705.0000
2019-05-15T07:59:04.374Z,6981.0000
2019-05-15T08:00:08.252Z,8029.0000
2019-05-15T08:01:11.308Z,8147.0000
2019-05-15T08:02:14.317Z,11221.0000
2019-05-15T08:03:18.411Z,11009.0000
2019-05-15T08:04:28.906Z,9056.0000
2019-05-15T08:05:29.289Z,10085.0000
2019-05-15T08:06:32.330Z,11940.0000
2019-05-15T08:07:35.283Z,13614.0000
2019-05-15T08:08:39.286Z,12409.0000
2019-05-15T08:09:42.331Z,12476.0000
2019-05-15T08:10:45.334Z,12266.0000
2019-05-15T08:11:48.710Z,11202.0000
2019-05-15T08:12:52.276Z,13809.0000
2019-05-15T08:13:55.321Z,19376.0000
2019-05-15T08:14:58.429Z,17493.0000
2019-05-15T08:16:01.309Z,16310.0000
2019-05-15T08:17:04.306Z,15395.0000
2019-05-15T08:18:09.912Z,14322.0000
2019-05-15T08:19:15.324Z,13065.0000
2019-05-15T08:20:18.486Z,11771.0000
2019-05-15T08:21:21.300Z,9709.0000
2019-05-15T08:22:24.350Z,8422.0000
2019-05-15T08:23:28.451Z,9891.0000
2019-05-15T08:24:31.324Z,11525.0000
2019-05-15T08:25:35.474Z,11437.0000
2019-05-15T08:26:42.357Z,9308.0000
2019-05-15T08:27:48.537Z,8392.0000
2019-05-15T08:28:51.307Z,8565.0000
2019-05-15T08:29:54.360Z,11906.0000
2019-05-15T08:30:58.427Z,12967.0000
2019-05-15T08:32:02.381Z,11502.0000
2019-05-15T08:33:05.304Z,10320.0000
2019-05-15T08:34:15.361Z,12162.0000
2019-05-15T08:35:18.927Z,17370.0000
2019-05-15T08:36:22.308Z,20312.0000
2019-05-15T08:37:25.370Z,16075.0000
2019-05-15T08:38:28.949Z,14831.0000
2019-05-15T08:39:32.337Z,13067.0000
2019-05-15T08:40:35.339Z,21680.0000
2019-05-15T08:41:39.098Z,24344.0000
2019-05-15T08:42:42.290Z,20448.0000
2019-05-15T08:43:45.321Z,20336.0000
2019-05-15T08:44:49.004Z,26136.0000
2019-05-15T08:45:52.345Z,23984.0000
2019-05-15T08:46:55.291Z,15057.0000
2019-05-15T08:47:58.670Z,15602.0000
2019-05-15T08:49:02.321Z,17738.0000
2019-05-15T08:50:05.327Z,16292.0000
2019-05-15T08:51:08.858Z,13228.0000
2019-05-15T08:52:12.289Z,10181.0000
2019-05-15T08:53:15.338Z,9205.0000
2019-05-15T08:54:18.482Z,12904.0000
2019-05-15T08:55:21.317Z,19184.0000
2019-05-15T08:56:24.416Z,24928.0000
2019-05-15T08:57:28.973Z,15003.0000
2019-05-15T08:58:32.334Z,26328.0000
2019-05-15T08:59:35.305Z,16312.0000
2019-05-15T09:00:39.794Z,14313.0000
2019-05-15T09:01:45.296Z,14255.0000
2019-05-15T09:02:48.879Z,13985.0000
2019-05-15T09:03:52.304Z,21152.0000
2019-05-15T09:04:57.895Z,16642.0000
2019-05-15T09:06:01.311Z,18376.0000
2019-05-15T09:07:04.388Z,34528.0000
2019-05-15T09:08:09.344Z,34840.0000
2019-05-15T09:09:12.288Z,19400.0000
2019-05-15T09:10:15.345Z,36160.0000
2019-05-15T09:11:19.176Z,16962.0000
2019-05-15T09:12:21.373Z,22416.0000
2019-05-15T09:13:24.315Z,25568.0000
2019-05-15T09:14:28.580Z,65535.0000
2019-05-15T09:15:32.341Z,25024.0000
2019-05-15T09:16:35.331Z,26536.0000
2019-05-15T09:17:39.885Z,25056.0000
2019-05-15T09:18:43.272Z,21224.0000
2019-05-15T09:19:45.320Z,23952.0000
2019-05-15T09:20:49.174Z,65535.0000
2019-05-15T09:21:52.378Z,62400.0000
2019-05-15T09:22:58.266Z,22648.0000
2019-05-15T09:24:01.313Z,31552.0000
2019-05-15T09:25:04.293Z,57096.0000
2019-05-15T09:26:09.221Z,56480.0000
2019-05-15T09:27:12.296Z,22376.0000
2019-05-15T09:28:15.320Z,16125.0000
2019-05-15T09:29:18.461Z,11857.0000
2019-05-15T09:30:20.335Z,11245.0000
2019-05-15T09:31:23.358Z,11516.0000
2019-05-15T09:32:28.312Z,40528.0000
2019-05-15T09:33:31.332Z,20080.0000
2019-05-15T09:34:47.954Z,25456.0000
2019-05-15T09:35:42.346Z,29976.0000
2019-05-15T09:36:45.437Z,20384.0000
2019-05-15T09:37:48.830Z,54728.0000
2019-05-15T09:38:52.312Z,23680.0000
2019-05-15T09:39:55.339Z,20152.0000
2019-05-15T09:40:58.639Z,14204.0000
2019-05-15T09:42:02.332Z,9721.0000
2019-05-15T09:43:05.352Z,10409.0000
2019-05-15T09:44:08.332Z,18840.0000
2019-05-15T09:45:11.331Z,15764.0000
2019-05-15T09:46:14.336Z,16098.0000
2019-05-15T09:47:18.840Z,29336.0000
2019-05-15T09:48:22.331Z,44376.0000
2019-05-15T09:49:24.333Z,65535.0000
2019-05-15T09:50:28.247Z,65535.0000
2019-05-15T09:51:31.320Z,30824.0000
2019-05-15T09:52:34.337Z,18472.0000
2019-05-15T09:53:39.343Z,14494.0000
2019-05-15T09:54:42.331Z,13165.0000
2019-05-15T09:55:45.313Z,12045.0000
2019-05-15T09:56:50.406Z,11560.0000
2019-05-15T09:57:55.156Z,13337.0000
2019-05-15T09:58:58.362Z,14552.0000
2019-05-15T10:00:01.299Z,14382.0000
2019-05-15T10:01:04.284Z,13829.0000
2019-05-15T10:02:09.221Z,13950.0000
2019-05-15T10:03:12.308Z,14002.0000
2019-05-15T10:04:15.312Z,13203.0000
2019-05-15T10:05:18.837Z,65535.0000
2019-05-15T10:06:24.371Z,23800.0000
2019-05-15T10:07:28.584Z,23872.0000
2019-05-15T10:08:32.354Z,21608.0000
2019-05-15T10:09:35.288Z,24072.0000
2019-05-15T10:10:38.305Z,65535.0000
2019-05-15T10:11:41.334Z,65535.0000
2019-05-15T10:12:44.337Z,65535.0000
2019-05-15T10:13:47.352Z,65535.0000
2019-05-15T10:14:50.314Z,30240.0000
2019-05-15T10:15:53.312Z,18952.0000
2019-05-15T10:16:58.412Z,18392.0000
2019-05-15T10:18:02.372Z,19864.0000
2019-05-15T10:19:05.284Z,20680.0000
2019-05-15T10:20:09.155Z,29552.0000
2019-05-15T10:21:12.297Z,65535.0000
2019-05-15T10:22:15.329Z,65535.0000
2019-05-15T10:23:19.465Z,65535.0000
2019-05-15T10:24:23.332Z,65535.0000
2019-05-15T10:25:28.130Z,33696.0000
2019-05-15T10:26:31.300Z,31680.0000
2019-05-15T10:27:36.388Z,14958.0000
2019-05-15T10:28:41.346Z,11979.0000
2019-05-15T10:29:44.326Z,11667.0000
2019-05-15T10:30:49.218Z,12982.0000
2019-05-15T10:31:53.324Z,11885.0000
2019-05-15T10:32:56.328Z,10068.0000
2019-05-15T10:33:59.309Z,10043.0000
2019-05-15T10:35:02.330Z,11378.0000
2019-05-15T10:36:05.297Z,14139.0000
2019-05-15T10:37:08.497Z,20960.0000
2019-05-15T10:38:11.331Z,65535.0000
2019-05-15T10:39:14.317Z,35944.0000
2019-05-15T10:40:20.161Z,20928.0000
2019-05-15T10:41:23.324Z,22584.0000
2019-05-15T10:42:28.875Z,27648.0000
2019-05-15T10:43:32.309Z,65535.0000
2019-05-15T10:44:35.314Z,31536.0000
2019-05-15T10:45:42.405Z,65535.0000
2019-05-15T10:46:48.269Z,25024.0000
2019-05-15T10:47:51.300Z,21040.0000
2019-05-15T10:48:54.351Z,20144.0000
2019-05-15T10:49:57.336Z,20240.0000
2019-05-15T10:51:05.926Z,19632.0000
2019-05-15T10:52:08.727Z,17808.0000
2019-05-15T10:53:14.338Z,18256.0000
2019-05-15T10:54:19.269Z,19312.0000
2019-05-15T10:55:21.305Z,21168.0000
2019-05-15T10:56:24.287Z,24072.0000
2019-05-15T10:57:28.065Z,26608.0000
2019-05-15T10:58:31.379Z,23488.0000
2019-05-15T10:59:34.313Z,22352.0000
2019-05-15T11:00:37.331Z,25760.0000
2019-05-15T11:01:40.306Z,27000.0000
2019-05-15T11:02:43.344Z,26696.0000
2019-05-15T11:03:46.324Z,25840.0000
2019-05-15T11:04:52.329Z,26800.0000
2019-05-15T11:05:55.309Z,26016.0000
2019-05-15T11:06:58.308Z,23832.0000
2019-05-15T11:08:01.314Z,24816.0000
2019-05-15T11:09:04.319Z,33608.0000
2019-05-15T11:10:08.623Z,24648.0000
2019-05-15T11:11:12.310Z,28048.0000
2019-05-15T11:12:15.374Z,35096.0000
2019-05-15T11:13:18.876Z,65535.0000
2019-05-15T11:14:22.334Z,51800.0000
2019-05-15T11:15:25.329Z,19552.0000
2019-05-15T11:16:28.410Z,14538.0000
2019-05-15T11:17:31.607Z,13318.0000
2019-05-15T11:18:35.330Z,14813.0000
2019-05-15T11:19:40.644Z,15222.0000
2019-05-15T11:20:44.311Z,15616.0000
2019-05-15T11:21:48.519Z,16415.0000
2019-05-15T11:22:51.345Z,17088.0000
2019-05-15T11:23:54.339Z,20232.0000
2019-05-15T11:24:59.423Z,23016.0000
2019-05-15T11:26:02.336Z,26104.0000
2019-05-15T11:27:05.295Z,30048.0000
2019-05-15T11:28:08.395Z,32088.0000
2019-05-15T11:29:11.363Z,32104.0000
2019-05-15T11:30:14.296Z,31832.0000
2019-05-15T11:31:17.334Z,45496.0000
2019-05-15T11:32:20.325Z,32888.0000
2019-05-15T11:33:23.326Z,33816.0000
2019-05-15T11:34:28.797Z,29960.0000
2019-05-15T11:35:32.323Z,23512.0000
2019-05-15T11:36:35.278Z,19472.0000
2019-05-15T11:37:44.146Z,19616.0000
2019-05-15T11:38:45.363Z,19168.0000
2019-05-15T11:39:48.411Z,16482.0000
2019-05-15T11:40:51.294Z,14894.0000
2019-05-15T11:41:54.276Z,13793.0000
2019-05-15T11:42:57.300Z,14188.0000
2019-05-15T11:44:00.294Z,16932.0000
2019-05-15T11:45:03.373Z,20944.0000
2019-05-15T11:46:06.318Z,25392.0000
2019-05-15T11:47:09.351Z,32264.0000
2019-05-15T11:48:12.368Z,42168.0000
2019-05-15T11:49:15.298Z,65535.0000
2019-05-15T11:50:20.461Z,65535.0000
2019-05-15T11:51:24.276Z,65535.0000
2019-05-15T11:52:29.485Z,65535.0000
2019-05-15T11:53:32.316Z,32984.0000
2019-05-15T11:54:35.289Z,39032.0000
2019-05-15T11:55:38.810Z,32152.0000
2019-05-15T11:56:41.329Z,29696.0000
2019-05-15T11:57:47.608Z,27704.0000
2019-05-15T11:58:52.313Z,26248.0000
2019-05-15T11:59:56.426Z,25176.0000
2019-05-15T12:01:02.354Z,23376.0000
2019-05-15T12:02:05.270Z,24072.0000
2019-05-15T12:03:08.902Z,27880.0000
2019-05-15T12:04:26.673Z,32624.0000
2019-05-15T12:05:20.275Z,38312.0000
2019-05-15T12:06:23.368Z,41744.0000
2019-05-15T12:07:28.856Z,44168.0000
2019-05-15T12:08:32.304Z,41168.0000
2019-05-15T12:09:35.314Z,40984.0000
2019-05-15T12:10:38.870Z,43448.0000
2019-05-15T12:11:42.350Z,45736.0000
2019-05-15T12:12:45.300Z,40040.0000
2019-05-15T12:13:48.310Z,38280.0000
2019-05-15T12:14:51.295Z,25840.0000
2019-05-15T12:15:54.369Z,27032.0000
2019-05-15T12:18:05.305Z,27424.0000
2019-05-15T12:19:12.730Z,24928.0000